AAL3315 KMIA-TNCM
Flight info
| Callsign | AAL3315 |
|---|---|
| Flight time | 2h 24m |
| Altitude | 39000 |
| Route | KLADA2 BITAC Y290 SLUGO |
| Aircraft | B38M/M-SDE1FGHILORVWXY/HB1 |
Departure
| Time | 2026-05-05 15:41 |
|---|---|
| Airport | Miami International Airport (KMIA) |
Arrival
| Time | 2026-05-05 18:05 |
|---|---|
| Airport | Princess Juliana International Airport (TNCM) |
| Time | Latitude | Longitude | Altitude | Speed | Heading |
|---|---|---|---|---|---|
| 2026-05-05 15:07 | 25.79699 | -80.28179 | 17 ft | 0 kts | 24° |
| 2026-05-05 15:27 | 25.79678 | -80.28188 | 17 ft | 4 kts | 13° |
| 2026-05-05 15:27 | 25.79652 | -80.28190 | 17 ft | 4 kts | 346° |
| 2026-05-05 15:27 | 25.79634 | -80.28177 | 18 ft | 3 kts | 293° |
| 2026-05-05 15:27 | 25.79633 | -80.28174 | 17 ft | 1 kts | 291° |
| 2026-05-05 15:33 | 25.79637 | -80.28188 | 19 ft | 5 kts | 291° |
| 2026-05-05 15:33 | 25.79658 | -80.28237 | 18 ft | 9 kts | 297° |
| 2026-05-05 15:33 | 25.79675 | -80.28309 | 17 ft | 11 kts | 270° |
| 2026-05-05 15:34 | 25.79670 | -80.28401 | 17 ft | 13 kts | 266° |
| 2026-05-05 15:34 | 25.79664 | -80.28511 | 17 ft | 15 kts | 263° |
| 2026-05-05 15:34 | 25.79649 | -80.28626 | 17 ft | 13 kts | 267° |
| 2026-05-05 15:34 | 25.79642 | -80.28729 | 17 ft | 14 kts | 264° |
| 2026-05-05 15:35 | 25.79685 | -80.28812 | 17 ft | 15 kts | 355° |
| 2026-05-05 15:35 | 25.79793 | -80.28819 | 17 ft | 17 kts | 358° |
| 2026-05-05 15:35 | 25.79914 | -80.28826 | 18 ft | 17 kts | 355° |
| 2026-05-05 15:35 | 25.80009 | -80.28867 | 21 ft | 16 kts | 287° |
| 2026-05-05 15:36 | 25.80008 | -80.28997 | 18 ft | 18 kts | 267° |
| 2026-05-05 15:36 | 25.80002 | -80.29142 | 19 ft | 20 kts | 268° |
| 2026-05-05 15:36 | 25.79996 | -80.29303 | 18 ft | 22 kts | 268° |
| 2026-05-05 15:36 | 25.79988 | -80.29483 | 17 ft | 24 kts | 267° |
| 2026-05-05 15:37 | 25.79980 | -80.29673 | 17 ft | 24 kts | 268° |
| 2026-05-05 15:37 | 25.79974 | -80.29843 | 16 ft | 21 kts | 265° |
| 2026-05-05 15:37 | 25.79967 | -80.30009 | 16 ft | 20 kts | 267° |
| 2026-05-05 15:37 | 25.79982 | -80.30093 | 18 ft | 10 kts | 301° |
| 2026-05-05 15:38 | 25.80046 | -80.30129 | 18 ft | 12 kts | 4° |
| 2026-05-05 15:38 | 25.80074 | -80.30069 | 16 ft | 0 kts | 87° |
| 2026-05-05 15:40 | 25.80075 | -80.30057 | 16 ft | 4 kts | 87° |
| 2026-05-05 15:40 | 25.80081 | -80.29887 | 15 ft | 56 kts | 88° |
| 2026-05-05 15:40 | 25.80109 | -80.29190 | 19 ft | 125 kts | 87° |
| 2026-05-05 15:40 | 25.80163 | -80.28015 | 88 ft | 173 kts | 87° |
| 2026-05-05 15:41 | 25.80231 | -80.26660 | 759 ft | 177 kts | 84° |
| 2026-05-05 15:41 | 25.80282 | -80.25254 | 1393 ft | 191 kts | 94° |
| 2026-05-05 15:41 | 25.79759 | -80.23820 | 1932 ft | 217 kts | 122° |
| 2026-05-05 15:41 | 25.78872 | -80.22371 | 2575 ft | 237 kts | 119° |
| 2026-05-05 15:42 | 25.78043 | -80.20717 | 3351 ft | 250 kts | 117° |
| 2026-05-05 15:42 | 25.77243 | -80.18995 | 4303 ft | 257 kts | 116° |
| 2026-05-05 15:42 | 25.76375 | -80.17176 | 4973 ft | 276 kts | 119° |
| 2026-05-05 15:42 | 25.75440 | -80.15281 | 5877 ft | 281 kts | 119° |
| 2026-05-05 15:43 | 25.74495 | -80.13362 | 6850 ft | 286 kts | 120° |
| 2026-05-05 15:43 | 25.73534 | -80.11398 | 7737 ft | 293 kts | 118° |
| 2026-05-05 15:43 | 25.72788 | -80.09269 | 8599 ft | 300 kts | 109° |
| 2026-05-05 15:43 | 25.72098 | -80.07059 | 9474 ft | 307 kts | 110° |
| 2026-05-05 15:44 | 25.71372 | -80.04804 | 10290 ft | 315 kts | 111° |
| 2026-05-05 15:44 | 25.70603 | -80.02456 | 10818 ft | 331 kts | 111° |
| 2026-05-05 15:44 | 25.69794 | -80.00013 | 11400 ft | 344 kts | 111° |
| 2026-05-05 15:44 | 25.68960 | -79.97510 | 12240 ft | 347 kts | 111° |
| 2026-05-05 15:45 | 25.68115 | -79.94980 | 13009 ft | 354 kts | 111° |
| 2026-05-05 15:45 | 25.67251 | -79.92400 | 13828 ft | 358 kts | 111° |
| 2026-05-05 15:45 | 25.66379 | -79.89796 | 14538 ft | 364 kts | 111° |
| 2026-05-05 15:45 | 25.65492 | -79.87150 | 15246 ft | 369 kts | 111° |
| 2026-05-05 15:46 | 25.64604 | -79.84503 | 15927 ft | 374 kts | 111° |
| 2026-05-05 15:46 | 25.63690 | -79.81781 | 16606 ft | 379 kts | 110° |
| 2026-05-05 15:46 | 25.62763 | -79.79024 | 17288 ft | 384 kts | 110° |
| 2026-05-05 15:46 | 25.61823 | -79.76230 | 17971 ft | 389 kts | 110° |
| 2026-05-05 15:47 | 25.60874 | -79.73411 | 18569 ft | 394 kts | 110° |
| 2026-05-05 15:47 | 25.60224 | -79.71480 | 18946 ft | 397 kts | 110° |
| 2026-05-05 15:47 | 25.58859 | -79.67695 | 19690 ft | 403 kts | 112° |
| 2026-05-05 15:47 | 25.57801 | -79.64807 | 20231 ft | 407 kts | 111° |
| 2026-05-05 15:48 | 25.56735 | -79.61891 | 20799 ft | 410 kts | 111° |
| 2026-05-05 15:48 | 25.55660 | -79.58947 | 21346 ft | 414 kts | 111° |
| 2026-05-05 15:48 | 25.54574 | -79.55976 | 21876 ft | 418 kts | 111° |
| 2026-05-05 15:48 | 25.53478 | -79.52977 | 22404 ft | 422 kts | 111° |
| 2026-05-05 15:49 | 25.52370 | -79.49950 | 22917 ft | 426 kts | 111° |
| 2026-05-05 15:49 | 25.51252 | -79.46894 | 23421 ft | 430 kts | 111° |
| 2026-05-05 15:49 | 25.50123 | -79.43812 | 23881 ft | 434 kts | 111° |
| 2026-05-05 15:49 | 25.48987 | -79.40714 | 24329 ft | 437 kts | 111° |
| 2026-05-05 15:50 | 25.47841 | -79.37590 | 24767 ft | 439 kts | 111° |
| 2026-05-05 15:50 | 25.46687 | -79.34446 | 25210 ft | 442 kts | 111° |
| 2026-05-05 15:50 | 25.45524 | -79.31282 | 25635 ft | 445 kts | 111° |
| 2026-05-05 15:50 | 25.44353 | -79.28097 | 26050 ft | 448 kts | 111° |
| 2026-05-05 15:51 | 25.43172 | -79.24890 | 26461 ft | 451 kts | 111° |
| 2026-05-05 15:51 | 25.41984 | -79.21665 | 26874 ft | 454 kts | 111° |
| 2026-05-05 15:51 | 25.40788 | -79.18419 | 27281 ft | 457 kts | 111° |
| 2026-05-05 15:51 | 25.39586 | -79.15161 | 27670 ft | 460 kts | 111° |
| 2026-05-05 15:52 | 25.38370 | -79.11868 | 28070 ft | 463 kts | 111° |
| 2026-05-05 15:52 | 25.37149 | -79.08563 | 28453 ft | 466 kts | 111° |
| 2026-05-05 15:52 | 25.35922 | -79.05246 | 28836 ft | 469 kts | 112° |
| 2026-05-05 15:52 | 25.34684 | -79.01902 | 29223 ft | 471 kts | 112° |
| 2026-05-05 15:53 | 25.33438 | -78.98538 | 29601 ft | 474 kts | 112° |
| 2026-05-05 15:53 | 25.32184 | -78.95156 | 29963 ft | 477 kts | 112° |
| 2026-05-05 15:53 | 25.30923 | -78.91754 | 30292 ft | 480 kts | 111° |
| 2026-05-05 15:53 | 25.29652 | -78.88331 | 30584 ft | 483 kts | 111° |
| 2026-05-05 15:54 | 25.28372 | -78.84886 | 30863 ft | 486 kts | 111° |
| 2026-05-05 15:54 | 25.27083 | -78.81419 | 31149 ft | 489 kts | 111° |
| 2026-05-05 15:54 | 25.25802 | -78.77979 | 31428 ft | 492 kts | 110° |
| 2026-05-05 15:54 | 25.24477 | -78.74423 | 31701 ft | 496 kts | 110° |
| 2026-05-05 15:55 | 25.23180 | -78.70947 | 31968 ft | 499 kts | 110° |
| 2026-05-05 15:55 | 25.21855 | -78.67395 | 32258 ft | 501 kts | 110° |
| 2026-05-05 15:55 | 25.20524 | -78.63831 | 32599 ft | 503 kts | 110° |
| 2026-05-05 15:55 | 25.19188 | -78.60252 | 32857 ft | 506 kts | 110° |
| 2026-05-05 15:56 | 25.17783 | -78.56681 | 33143 ft | 509 kts | 112° |
| 2026-05-05 15:56 | 25.16307 | -78.53120 | 33411 ft | 512 kts | 111° |
| 2026-05-05 15:56 | 25.14835 | -78.49534 | 33679 ft | 514 kts | 111° |
| 2026-05-05 15:56 | 25.13362 | -78.45934 | 33949 ft | 517 kts | 111° |
| 2026-05-05 15:57 | 25.11874 | -78.42302 | 34182 ft | 520 kts | 111° |
| 2026-05-05 15:57 | 25.10385 | -78.38669 | 34418 ft | 522 kts | 111° |
| 2026-05-05 15:57 | 25.08885 | -78.35015 | 34656 ft | 524 kts | 111° |
| 2026-05-05 15:57 | 25.07380 | -78.31348 | 34888 ft | 526 kts | 111° |
| 2026-05-05 15:58 | 25.05868 | -78.27670 | 35153 ft | 527 kts | 111° |
| 2026-05-05 15:58 | 25.04355 | -78.23991 | 35448 ft | 527 kts | 111° |
| 2026-05-05 15:58 | 25.02841 | -78.20312 | 35751 ft | 527 kts | 111° |
| 2026-05-05 15:58 | 25.01327 | -78.16636 | 36039 ft | 526 kts | 111° |
| 2026-05-05 15:59 | 24.99812 | -78.12962 | 36323 ft | 526 kts | 110° |
| 2026-05-05 15:59 | 24.98300 | -78.09298 | 36608 ft | 526 kts | 110° |
| 2026-05-05 15:59 | 24.96784 | -78.05629 | 36873 ft | 526 kts | 110° |
| 2026-05-05 15:59 | 24.95269 | -78.01961 | 37136 ft | 526 kts | 110° |
| 2026-05-05 16:00 | 24.93752 | -77.98295 | 37384 ft | 526 kts | 110° |
| 2026-05-05 16:00 | 24.92255 | -77.94679 | 37652 ft | 525 kts | 111° |
| 2026-05-05 16:00 | 24.90738 | -77.91020 | 37924 ft | 525 kts | 111° |
| 2026-05-05 16:00 | 24.89224 | -77.87366 | 38170 ft | 524 kts | 111° |
| 2026-05-05 16:01 | 24.87708 | -77.83715 | 38393 ft | 524 kts | 110° |
| 2026-05-05 16:01 | 24.86193 | -77.80067 | 38615 ft | 524 kts | 110° |
| 2026-05-05 16:01 | 24.84680 | -77.76429 | 38799 ft | 524 kts | 110° |
| 2026-05-05 16:01 | 24.83162 | -77.72783 | 38970 ft | 524 kts | 111° |
| 2026-05-05 16:02 | 24.81644 | -77.69138 | 39040 ft | 524 kts | 111° |
| 2026-05-05 16:02 | 24.78615 | -77.61870 | 39056 ft | 520 kts | 111° |
| 2026-05-05 16:03 | 24.75585 | -77.54645 | 39061 ft | 520 kts | 114° |
| 2026-05-05 16:03 | 24.72320 | -77.47552 | 39066 ft | 520 kts | 114° |
| 2026-05-05 16:04 | 24.69078 | -77.40458 | 39059 ft | 520 kts | 114° |
| 2026-05-05 16:04 | 24.65832 | -77.33359 | 39059 ft | 520 kts | 114° |
| 2026-05-05 16:05 | 24.62583 | -77.26262 | 39059 ft | 520 kts | 114° |
| 2026-05-05 16:05 | 24.59332 | -77.19173 | 39070 ft | 518 kts | 114° |
| 2026-05-05 16:06 | 24.56647 | -77.13327 | 39063 ft | 515 kts | 114° |
| 2026-05-05 16:06 | 24.53413 | -77.06296 | 39071 ft | 516 kts | 114° |
| 2026-05-05 16:07 | 24.50175 | -76.99265 | 39065 ft | 516 kts | 114° |
| 2026-05-05 16:07 | 24.46936 | -76.92245 | 39070 ft | 516 kts | 114° |
| 2026-05-05 16:08 | 24.43692 | -76.85222 | 39079 ft | 515 kts | 115° |
| 2026-05-05 16:08 | 24.40463 | -76.78244 | 39070 ft | 510 kts | 115° |
| 2026-05-05 16:09 | 24.37244 | -76.71298 | 39051 ft | 510 kts | 115° |
| 2026-05-05 16:09 | 24.34047 | -76.64408 | 39075 ft | 511 kts | 115° |
| 2026-05-05 16:10 | 24.30803 | -76.57429 | 39071 ft | 511 kts | 115° |
| 2026-05-05 16:10 | 24.27597 | -76.50540 | 39072 ft | 511 kts | 115° |
| 2026-05-05 16:11 | 24.24367 | -76.43611 | 39075 ft | 510 kts | 116° |
| 2026-05-05 16:12 | 24.17903 | -76.29775 | 39066 ft | 510 kts | 116° |
| 2026-05-05 16:13 | 24.09808 | -76.12506 | 39080 ft | 509 kts | 116° |
| 2026-05-05 16:13 | 24.06582 | -76.05642 | 39068 ft | 506 kts | 116° |
| 2026-05-05 16:14 | 24.00141 | -75.91965 | 39072 ft | 506 kts | 116° |
| 2026-05-05 16:15 | 23.93681 | -75.78289 | 39076 ft | 506 kts | 117° |
| 2026-05-05 16:16 | 23.87264 | -75.64740 | 39075 ft | 503 kts | 117° |
| 2026-05-05 16:17 | 23.82430 | -75.54561 | 39075 ft | 503 kts | 117° |
| 2026-05-05 16:18 | 23.77593 | -75.44397 | 39075 ft | 503 kts | 117° |
| 2026-05-05 16:19 | 23.72762 | -75.34266 | 39071 ft | 500 kts | 118° |
| 2026-05-05 16:19 | 23.67941 | -75.24176 | 39075 ft | 500 kts | 118° |
| 2026-05-05 16:20 | 23.61494 | -75.10719 | 39076 ft | 501 kts | 118° |
| 2026-05-05 16:22 | 23.53474 | -74.94029 | 39076 ft | 495 kts | 118° |
| 2026-05-05 16:23 | 23.47073 | -74.80750 | 39075 ft | 495 kts | 118° |
| 2026-05-05 16:23 | 23.42285 | -74.70841 | 39075 ft | 495 kts | 118° |
| 2026-05-05 16:24 | 23.39058 | -74.64173 | 39075 ft | 495 kts | 118° |
| 2026-05-05 16:25 | 23.34258 | -74.54272 | 39079 ft | 495 kts | 118° |
| 2026-05-05 16:25 | 23.29435 | -74.44344 | 39078 ft | 495 kts | 119° |
| 2026-05-05 16:26 | 23.22973 | -74.31072 | 39078 ft | 496 kts | 118° |
| 2026-05-05 16:27 | 23.19750 | -74.24468 | 39076 ft | 494 kts | 118° |
| 2026-05-05 16:27 | 23.16524 | -74.17864 | 39078 ft | 495 kts | 118° |
| 2026-05-05 16:28 | 23.13295 | -74.11264 | 39075 ft | 495 kts | 119° |
| 2026-05-05 16:28 | 23.10087 | -74.04717 | 39075 ft | 495 kts | 119° |
| 2026-05-05 16:29 | 23.06853 | -73.98123 | 39082 ft | 494 kts | 119° |
| 2026-05-05 16:29 | 23.03635 | -73.91571 | 39074 ft | 491 kts | 119° |
| 2026-05-05 16:30 | 23.00420 | -73.85033 | 39079 ft | 491 kts | 119° |
| 2026-05-05 16:30 | 22.97201 | -73.78497 | 39077 ft | 491 kts | 119° |
| 2026-05-05 16:31 | 22.93980 | -73.71965 | 39075 ft | 491 kts | 119° |
| 2026-05-05 16:31 | 22.90761 | -73.65446 | 39075 ft | 491 kts | 119° |
| 2026-05-05 16:32 | 22.87540 | -73.58931 | 39054 ft | 489 kts | 119° |
| 2026-05-05 16:32 | 22.84310 | -73.52406 | 39083 ft | 493 kts | 119° |
| 2026-05-05 16:33 | 22.81066 | -73.45861 | 39075 ft | 492 kts | 119° |
| 2026-05-05 16:33 | 22.77842 | -73.39366 | 39078 ft | 492 kts | 119° |
| 2026-05-05 16:34 | 22.74594 | -73.32831 | 39074 ft | 492 kts | 119° |
| 2026-05-05 16:34 | 22.71343 | -73.26298 | 39071 ft | 493 kts | 120° |
| 2026-05-05 16:35 | 22.68084 | -73.19758 | 39072 ft | 494 kts | 120° |
| 2026-05-05 16:35 | 22.64820 | -73.13214 | 39078 ft | 494 kts | 120° |
| 2026-05-05 16:36 | 22.61552 | -73.06672 | 39075 ft | 494 kts | 120° |
| 2026-05-05 16:36 | 22.58282 | -73.00135 | 39074 ft | 494 kts | 120° |
| 2026-05-05 16:37 | 22.55010 | -72.93601 | 39071 ft | 494 kts | 120° |
| 2026-05-05 16:37 | 22.51731 | -72.87062 | 39077 ft | 495 kts | 120° |
| 2026-05-05 16:38 | 22.48464 | -72.80556 | 39055 ft | 495 kts | 119° |
| 2026-05-05 16:38 | 22.45172 | -72.74008 | 39075 ft | 496 kts | 120° |
| 2026-05-05 16:39 | 22.41876 | -72.67461 | 39073 ft | 496 kts | 119° |
| 2026-05-05 16:39 | 22.38582 | -72.60925 | 39078 ft | 496 kts | 119° |
| 2026-05-05 16:40 | 22.35278 | -72.54377 | 39078 ft | 496 kts | 120° |
| 2026-05-05 16:40 | 22.31977 | -72.47845 | 39078 ft | 496 kts | 120° |
| 2026-05-05 16:41 | 22.28669 | -72.41308 | 39075 ft | 496 kts | 120° |
| 2026-05-05 16:41 | 22.25362 | -72.34779 | 39075 ft | 496 kts | 120° |
| 2026-05-05 16:42 | 22.22049 | -72.28247 | 39078 ft | 496 kts | 120° |
| 2026-05-05 16:42 | 22.18737 | -72.21726 | 39080 ft | 494 kts | 120° |
| 2026-05-05 16:43 | 22.15443 | -72.15248 | 39073 ft | 492 kts | 120° |
| 2026-05-05 16:43 | 22.12148 | -72.08777 | 39075 ft | 492 kts | 120° |
| 2026-05-05 16:44 | 22.08873 | -72.02352 | 39052 ft | 492 kts | 120° |
| 2026-05-05 16:44 | 22.05593 | -71.95927 | 39063 ft | 487 kts | 120° |
| 2026-05-05 16:45 | 22.02328 | -71.89537 | 39075 ft | 486 kts | 120° |
| 2026-05-05 16:45 | 21.99093 | -71.83214 | 39072 ft | 479 kts | 120° |
| 2026-05-05 16:46 | 21.95875 | -71.76932 | 39074 ft | 479 kts | 120° |
| 2026-05-05 16:46 | 21.92652 | -71.70648 | 39073 ft | 479 kts | 120° |
| 2026-05-05 16:47 | 21.89430 | -71.64373 | 39073 ft | 479 kts | 121° |
| 2026-05-05 16:47 | 21.86204 | -71.58096 | 39072 ft | 479 kts | 121° |
| 2026-05-05 16:48 | 21.82974 | -71.51817 | 39076 ft | 480 kts | 121° |
| 2026-05-05 16:48 | 21.79739 | -71.45538 | 39079 ft | 479 kts | 121° |
| 2026-05-05 16:49 | 21.76507 | -71.39270 | 39072 ft | 480 kts | 121° |
| 2026-05-05 16:49 | 21.73268 | -71.32997 | 39079 ft | 480 kts | 121° |
| 2026-05-05 16:50 | 21.70027 | -71.26727 | 39073 ft | 479 kts | 121° |
| 2026-05-05 16:50 | 21.66784 | -71.20461 | 39061 ft | 480 kts | 121° |
| 2026-05-05 16:51 | 21.63533 | -71.14186 | 39079 ft | 480 kts | 121° |
| 2026-05-05 16:51 | 21.60300 | -71.07955 | 39073 ft | 480 kts | 121° |
| 2026-05-05 16:52 | 21.56877 | -71.01748 | 39072 ft | 478 kts | 126° |
| 2026-05-05 16:52 | 21.53170 | -70.95872 | 39080 ft | 479 kts | 127° |
| 2026-05-05 16:53 | 21.49417 | -70.89966 | 39077 ft | 479 kts | 127° |
| 2026-05-05 16:53 | 21.45661 | -70.84064 | 39073 ft | 479 kts | 127° |
| 2026-05-05 16:54 | 21.41903 | -70.78165 | 39076 ft | 479 kts | 127° |
| 2026-05-05 16:54 | 21.38146 | -70.72275 | 39075 ft | 479 kts | 127° |
| 2026-05-05 16:55 | 21.34384 | -70.66382 | 39075 ft | 479 kts | 127° |
| 2026-05-05 16:55 | 21.30622 | -70.60496 | 39078 ft | 479 kts | 127° |
| 2026-05-05 16:56 | 21.26854 | -70.54607 | 39073 ft | 479 kts | 127° |
| 2026-05-05 16:56 | 21.23105 | -70.48754 | 39074 ft | 479 kts | 128° |
| 2026-05-05 16:57 | 21.19336 | -70.42875 | 39075 ft | 479 kts | 128° |
| 2026-05-05 16:57 | 21.15561 | -70.36994 | 39078 ft | 479 kts | 128° |
| 2026-05-05 16:58 | 21.11784 | -70.31115 | 39078 ft | 479 kts | 128° |
| 2026-05-05 16:58 | 21.08007 | -70.25243 | 39078 ft | 479 kts | 128° |
| 2026-05-05 16:59 | 21.04229 | -70.19374 | 39077 ft | 479 kts | 128° |
| 2026-05-05 16:59 | 21.00442 | -70.13500 | 39083 ft | 481 kts | 128° |
| 2026-05-05 17:00 | 20.96645 | -70.07615 | 39078 ft | 480 kts | 128° |
| 2026-05-05 17:00 | 20.93488 | -70.02726 | 39084 ft | 480 kts | 128° |
| 2026-05-05 17:01 | 20.89686 | -69.96844 | 39065 ft | 481 kts | 129° |
| 2026-05-05 17:01 | 20.85874 | -69.90954 | 39084 ft | 482 kts | 129° |
| 2026-05-05 17:02 | 20.82055 | -69.85058 | 39082 ft | 482 kts | 129° |
| 2026-05-05 17:02 | 20.78230 | -69.79160 | 39081 ft | 483 kts | 129° |
| 2026-05-05 17:03 | 20.74402 | -69.73261 | 39078 ft | 483 kts | 129° |
| 2026-05-05 17:03 | 20.70572 | -69.67368 | 39080 ft | 483 kts | 129° |
| 2026-05-05 17:04 | 20.66743 | -69.61481 | 39088 ft | 483 kts | 129° |
| 2026-05-05 17:04 | 20.62909 | -69.55593 | 39086 ft | 483 kts | 129° |
| 2026-05-05 17:05 | 20.59073 | -69.49706 | 39078 ft | 483 kts | 130° |
| 2026-05-05 17:05 | 20.55235 | -69.43825 | 39086 ft | 483 kts | 130° |
| 2026-05-05 17:06 | 20.51393 | -69.37943 | 39076 ft | 483 kts | 130° |
| 2026-05-05 17:06 | 20.47571 | -69.32095 | 39093 ft | 484 kts | 130° |
| 2026-05-05 17:07 | 20.43694 | -69.26171 | 39084 ft | 484 kts | 130° |
| 2026-05-05 17:07 | 20.39870 | -69.20334 | 39086 ft | 484 kts | 130° |
| 2026-05-05 17:08 | 20.36017 | -69.14460 | 39086 ft | 483 kts | 130° |
| 2026-05-05 17:08 | 20.32168 | -69.08595 | 39085 ft | 483 kts | 130° |
| 2026-05-05 17:09 | 20.28321 | -69.02740 | 39088 ft | 483 kts | 130° |
| 2026-05-05 17:09 | 20.24467 | -68.96881 | 39089 ft | 483 kts | 130° |
| 2026-05-05 17:10 | 20.20612 | -68.91026 | 39084 ft | 483 kts | 130° |
| 2026-05-05 17:10 | 20.16755 | -68.85171 | 39084 ft | 483 kts | 130° |
| 2026-05-05 17:11 | 20.12903 | -68.79331 | 39086 ft | 481 kts | 130° |
| 2026-05-05 17:11 | 20.09059 | -68.73507 | 39088 ft | 481 kts | 130° |
| 2026-05-05 17:12 | 20.05365 | -68.67543 | 39091 ft | 483 kts | 128° |
| 2026-05-05 17:12 | 20.01696 | -68.61614 | 39088 ft | 483 kts | 128° |
| 2026-05-05 17:13 | 19.98003 | -68.55658 | 39088 ft | 483 kts | 128° |
| 2026-05-05 17:13 | 19.94306 | -68.49701 | 39085 ft | 482 kts | 128° |
| 2026-05-05 17:14 | 19.90614 | -68.43759 | 39094 ft | 482 kts | 128° |
| 2026-05-05 17:14 | 19.86920 | -68.37820 | 39092 ft | 482 kts | 128° |
| 2026-05-05 17:15 | 19.83224 | -68.31883 | 39091 ft | 482 kts | 128° |
| 2026-05-05 17:15 | 19.79526 | -68.25951 | 39092 ft | 482 kts | 128° |
| 2026-05-05 17:16 | 19.75831 | -68.20028 | 39092 ft | 482 kts | 128° |
| 2026-05-05 17:16 | 19.72132 | -68.14102 | 39084 ft | 481 kts | 128° |
| 2026-05-05 17:17 | 19.68427 | -68.08176 | 39092 ft | 482 kts | 128° |
| 2026-05-05 17:17 | 19.64723 | -68.02256 | 39094 ft | 481 kts | 128° |
| 2026-05-05 17:18 | 19.61017 | -67.96338 | 39085 ft | 481 kts | 128° |
| 2026-05-05 17:18 | 19.57312 | -67.90428 | 39089 ft | 481 kts | 128° |
| 2026-05-05 17:19 | 19.53626 | -67.84555 | 39093 ft | 481 kts | 128° |
| 2026-05-05 17:19 | 19.49915 | -67.78645 | 39094 ft | 481 kts | 128° |
| 2026-05-05 17:20 | 19.46204 | -67.72736 | 39089 ft | 481 kts | 128° |
| 2026-05-05 17:20 | 19.42496 | -67.66835 | 39091 ft | 481 kts | 128° |
| 2026-05-05 17:21 | 19.38783 | -67.60932 | 39094 ft | 481 kts | 128° |
| 2026-05-05 17:22 | 19.33209 | -67.52083 | 39080 ft | 481 kts | 128° |
| 2026-05-05 17:22 | 19.29498 | -67.46198 | 39087 ft | 481 kts | 128° |
| 2026-05-05 17:23 | 19.25785 | -67.40315 | 39089 ft | 481 kts | 128° |
| 2026-05-05 17:23 | 19.22068 | -67.34432 | 39089 ft | 481 kts | 128° |
| 2026-05-05 17:24 | 19.18349 | -67.28553 | 39086 ft | 481 kts | 128° |
| 2026-05-05 17:24 | 19.14633 | -67.22682 | 39086 ft | 481 kts | 128° |
| 2026-05-05 17:25 | 19.10913 | -67.16811 | 39085 ft | 480 kts | 128° |
| 2026-05-05 17:25 | 19.07194 | -67.10947 | 39086 ft | 480 kts | 128° |
| 2026-05-05 17:26 | 19.03472 | -67.05084 | 39085 ft | 480 kts | 128° |
| 2026-05-05 17:26 | 18.99773 | -66.99264 | 39088 ft | 480 kts | 128° |
| 2026-05-05 17:27 | 18.96053 | -66.93414 | 39086 ft | 480 kts | 128° |
| 2026-05-05 17:27 | 18.92328 | -66.87562 | 39074 ft | 480 kts | 127° |
| 2026-05-05 17:28 | 18.88600 | -66.81712 | 39080 ft | 480 kts | 127° |
| 2026-05-05 17:28 | 18.84870 | -66.75865 | 39078 ft | 480 kts | 127° |
| 2026-05-05 17:29 | 18.81141 | -66.70024 | 39072 ft | 480 kts | 127° |
| 2026-05-05 17:29 | 18.77467 | -66.64142 | 39066 ft | 482 kts | 121° |
| 2026-05-05 17:29 | 18.76247 | -66.60851 | 39057 ft | 485 kts | 104° |
| 2026-05-05 17:30 | 18.75793 | -66.57314 | 39085 ft | 489 kts | 96° |
| 2026-05-05 17:30 | 18.75227 | -66.50144 | 39068 ft | 490 kts | 96° |
| 2026-05-05 17:31 | 18.74730 | -66.42963 | 39071 ft | 491 kts | 95° |
| 2026-05-05 17:31 | 18.74250 | -66.35784 | 39069 ft | 490 kts | 95° |
| 2026-05-05 17:32 | 18.73768 | -66.28612 | 39072 ft | 491 kts | 95° |
| 2026-05-05 17:32 | 18.73282 | -66.21435 | 39073 ft | 490 kts | 95° |
| 2026-05-05 17:33 | 18.72795 | -66.14267 | 39079 ft | 490 kts | 95° |
| 2026-05-05 17:33 | 18.72309 | -66.07148 | 39080 ft | 490 kts | 95° |
| 2026-05-05 17:34 | 18.71816 | -65.99987 | 39082 ft | 490 kts | 95° |
| 2026-05-05 17:34 | 18.71321 | -65.92821 | 39084 ft | 490 kts | 95° |
| 2026-05-05 17:35 | 18.70823 | -65.85661 | 39093 ft | 489 kts | 95° |
| 2026-05-05 17:35 | 18.70323 | -65.78505 | 39092 ft | 489 kts | 95° |
| 2026-05-05 17:36 | 18.69821 | -65.71357 | 39094 ft | 489 kts | 95° |
| 2026-05-05 17:36 | 18.69316 | -65.64202 | 39096 ft | 489 kts | 95° |
| 2026-05-05 17:37 | 18.68808 | -65.57052 | 39097 ft | 488 kts | 95° |
| 2026-05-05 17:37 | 18.68301 | -65.49961 | 39097 ft | 488 kts | 95° |
| 2026-05-05 17:38 | 18.67789 | -65.42824 | 39047 ft | 488 kts | 95° |
| 2026-05-05 17:38 | 18.67533 | -65.39260 | 38847 ft | 486 kts | 95° |
| 2026-05-05 17:38 | 18.67171 | -65.35745 | 38159 ft | 484 kts | 100° |
| 2026-05-05 17:38 | 18.66617 | -65.32208 | 36928 ft | 493 kts | 100° |
| 2026-05-05 17:39 | 18.66044 | -65.28642 | 36083 ft | 494 kts | 100° |
| 2026-05-05 17:39 | 18.65466 | -65.25083 | 35506 ft | 491 kts | 100° |
| 2026-05-05 17:39 | 18.64890 | -65.21547 | 34905 ft | 488 kts | 100° |
| 2026-05-05 17:39 | 18.64313 | -65.18013 | 34155 ft | 490 kts | 100° |
| 2026-05-05 17:40 | 18.63731 | -65.14455 | 33181 ft | 495 kts | 101° |
| 2026-05-05 17:40 | 18.63145 | -65.10876 | 32379 ft | 495 kts | 101° |
| 2026-05-05 17:40 | 18.62562 | -65.07320 | 31831 ft | 489 kts | 101° |
| 2026-05-05 17:40 | 18.61987 | -65.03814 | 31368 ft | 482 kts | 101° |
| 2026-05-05 17:41 | 18.61419 | -65.00359 | 30838 ft | 477 kts | 101° |
| 2026-05-05 17:41 | 18.60855 | -64.96927 | 30249 ft | 474 kts | 101° |
| 2026-05-05 17:41 | 18.60295 | -64.93522 | 29524 ft | 466 kts | 101° |
| 2026-05-05 17:41 | 18.59756 | -64.90249 | 28915 ft | 452 kts | 102° |
| 2026-05-05 17:42 | 18.59227 | -64.87040 | 28433 ft | 437 kts | 102° |
| 2026-05-05 17:42 | 18.58708 | -64.83902 | 27952 ft | 433 kts | 102° |
| 2026-05-05 17:42 | 18.58192 | -64.80781 | 27403 ft | 431 kts | 102° |
| 2026-05-05 17:42 | 18.57677 | -64.77673 | 26878 ft | 430 kts | 102° |
| 2026-05-05 17:43 | 18.57163 | -64.74578 | 26359 ft | 428 kts | 102° |
| 2026-05-05 17:43 | 18.56653 | -64.71503 | 25834 ft | 423 kts | 102° |
| 2026-05-05 17:43 | 18.56153 | -64.68485 | 25337 ft | 412 kts | 102° |
| 2026-05-05 17:43 | 18.55664 | -64.65546 | 24861 ft | 402 kts | 102° |
| 2026-05-05 17:44 | 18.55180 | -64.62646 | 24391 ft | 407 kts | 101° |
| 2026-05-05 17:44 | 18.54689 | -64.59692 | 23891 ft | 411 kts | 101° |
| 2026-05-05 17:44 | 18.54192 | -64.56715 | 23335 ft | 414 kts | 102° |
| 2026-05-05 17:44 | 18.53694 | -64.53733 | 22813 ft | 412 kts | 101° |
| 2026-05-05 17:45 | 18.53199 | -64.50764 | 22333 ft | 410 kts | 101° |
| 2026-05-05 17:45 | 18.52705 | -64.47815 | 21864 ft | 409 kts | 101° |
| 2026-05-05 17:45 | 18.52211 | -64.44866 | 21397 ft | 407 kts | 101° |
| 2026-05-05 17:45 | 18.51721 | -64.41934 | 20938 ft | 405 kts | 100° |
| 2026-05-05 17:46 | 18.51232 | -64.39018 | 20485 ft | 403 kts | 100° |
| 2026-05-05 17:46 | 18.50745 | -64.36114 | 20031 ft | 402 kts | 99° |
| 2026-05-05 17:46 | 18.50258 | -64.33224 | 19585 ft | 400 kts | 99° |
| 2026-05-05 17:46 | 18.49781 | -64.30385 | 19157 ft | 398 kts | 99° |
| 2026-05-05 17:47 | 18.49303 | -64.27543 | 18723 ft | 391 kts | 99° |
| 2026-05-05 17:47 | 18.48829 | -64.24730 | 18275 ft | 390 kts | 99° |
| 2026-05-05 17:47 | 18.48356 | -64.21931 | 17808 ft | 388 kts | 99° |
| 2026-05-05 17:47 | 18.47885 | -64.19144 | 17369 ft | 385 kts | 99° |
| 2026-05-05 17:48 | 18.47418 | -64.16377 | 16953 ft | 382 kts | 99° |
| 2026-05-05 17:48 | 18.46953 | -64.13631 | 16541 ft | 379 kts | 99° |
| 2026-05-05 17:48 | 18.46492 | -64.10906 | 16131 ft | 377 kts | 99° |
| 2026-05-05 17:48 | 18.46033 | -64.08200 | 15720 ft | 374 kts | 99° |
| 2026-05-05 17:49 | 18.45578 | -64.05513 | 15314 ft | 372 kts | 99° |
| 2026-05-05 17:49 | 18.45128 | -64.02867 | 14925 ft | 363 kts | 99° |
| 2026-05-05 17:49 | 18.44684 | -64.00252 | 14530 ft | 362 kts | 99° |
| 2026-05-05 17:49 | 18.44243 | -63.97657 | 14130 ft | 360 kts | 100° |
| 2026-05-05 17:50 | 18.43802 | -63.95070 | 13719 ft | 358 kts | 100° |
| 2026-05-05 17:50 | 18.43365 | -63.92499 | 13289 ft | 355 kts | 100° |
| 2026-05-05 17:50 | 18.42936 | -63.89984 | 12895 ft | 352 kts | 100° |
| 2026-05-05 17:50 | 18.42505 | -63.87457 | 12510 ft | 349 kts | 100° |
| 2026-05-05 17:51 | 18.42077 | -63.84952 | 12120 ft | 346 kts | 100° |
| 2026-05-05 17:51 | 18.41653 | -63.82468 | 11735 ft | 343 kts | 100° |
| 2026-05-05 17:51 | 18.41232 | -63.80004 | 11351 ft | 341 kts | 101° |
| 2026-05-05 17:51 | 18.40814 | -63.77562 | 10969 ft | 338 kts | 101° |
| 2026-05-05 17:52 | 18.40400 | -63.75139 | 10698 ft | 333 kts | 101° |
| 2026-05-05 17:52 | 18.39995 | -63.72776 | 10550 ft | 323 kts | 101° |
| 2026-05-05 17:52 | 18.39601 | -63.70478 | 10409 ft | 313 kts | 101° |
| 2026-05-05 17:52 | 18.39211 | -63.68260 | 10267 ft | 304 kts | 104° |
| 2026-05-05 17:53 | 18.38357 | -63.66276 | 10029 ft | 297 kts | 128° |
| 2026-05-05 17:53 | 18.36929 | -63.64735 | 9726 ft | 293 kts | 136° |
| 2026-05-05 17:53 | 18.35470 | -63.63252 | 9400 ft | 291 kts | 136° |
| 2026-05-05 17:53 | 18.34016 | -63.61789 | 9087 ft | 288 kts | 136° |
| 2026-05-05 17:54 | 18.32568 | -63.60341 | 8779 ft | 286 kts | 136° |
| 2026-05-05 17:54 | 18.31132 | -63.58909 | 8481 ft | 283 kts | 136° |
| 2026-05-05 17:54 | 18.29727 | -63.57513 | 8201 ft | 280 kts | 136° |
| 2026-05-05 17:54 | 18.28317 | -63.56112 | 7903 ft | 278 kts | 136° |
| 2026-05-05 17:55 | 18.26918 | -63.54725 | 7609 ft | 275 kts | 136° |
| 2026-05-05 17:55 | 18.25532 | -63.53350 | 7326 ft | 272 kts | 136° |
| 2026-05-05 17:55 | 18.24159 | -63.51988 | 7030 ft | 270 kts | 136° |
| 2026-05-05 17:55 | 18.22798 | -63.50639 | 6746 ft | 268 kts | 136° |
| 2026-05-05 17:56 | 18.21446 | -63.49298 | 6464 ft | 267 kts | 136° |
| 2026-05-05 17:56 | 18.20097 | -63.47961 | 6157 ft | 265 kts | 136° |
| 2026-05-05 17:56 | 18.18767 | -63.46643 | 5856 ft | 260 kts | 136° |
| 2026-05-05 17:56 | 18.17468 | -63.45358 | 5513 ft | 252 kts | 136° |
| 2026-05-05 17:57 | 18.16219 | -63.44120 | 5230 ft | 241 kts | 136° |
| 2026-05-05 17:57 | 18.15005 | -63.42918 | 4980 ft | 243 kts | 135° |
| 2026-05-05 17:57 | 18.13751 | -63.41677 | 4709 ft | 251 kts | 135° |
| 2026-05-05 17:57 | 18.12471 | -63.40410 | 4412 ft | 253 kts | 135° |
| 2026-05-05 17:58 | 18.11628 | -63.39577 | 4303 ft | 250 kts | 136° |
| 2026-05-05 17:58 | 18.10387 | -63.38348 | 4188 ft | 240 kts | 135° |
| 2026-05-05 17:58 | 18.09202 | -63.37175 | 4103 ft | 229 kts | 135° |
| 2026-05-05 17:58 | 18.08062 | -63.36048 | 3966 ft | 221 kts | 135° |
| 2026-05-05 17:59 | 18.06961 | -63.34960 | 3833 ft | 214 kts | 135° |
| 2026-05-05 17:59 | 18.05897 | -63.33908 | 3701 ft | 207 kts | 135° |
| 2026-05-05 17:59 | 18.04867 | -63.32890 | 3573 ft | 200 kts | 135° |
| 2026-05-05 17:59 | 18.03878 | -63.31913 | 3470 ft | 189 kts | 135° |
| 2026-05-05 18:00 | 18.02955 | -63.31000 | 3355 ft | 177 kts | 135° |
| 2026-05-05 18:00 | 18.02099 | -63.30120 | 3202 ft | 167 kts | 126° |
| 2026-05-05 18:00 | 18.01730 | -63.29019 | 3031 ft | 159 kts | 94° |
| 2026-05-05 18:00 | 18.01807 | -63.27865 | 2845 ft | 159 kts | 87° |
| 2026-05-05 18:01 | 18.01930 | -63.26704 | 2629 ft | 161 kts | 88° |
| 2026-05-05 18:01 | 18.02063 | -63.25553 | 2451 ft | 160 kts | 86° |
| 2026-05-05 18:01 | 18.02208 | -63.24390 | 2350 ft | 157 kts | 86° |
| 2026-05-05 18:01 | 18.02354 | -63.23271 | 2218 ft | 156 kts | 86° |
| 2026-05-05 18:02 | 18.02506 | -63.22140 | 2050 ft | 157 kts | 86° |
| 2026-05-05 18:02 | 18.02665 | -63.20990 | 1811 ft | 160 kts | 86° |
| 2026-05-05 18:02 | 18.02824 | -63.19846 | 1576 ft | 154 kts | 85° |
| 2026-05-05 18:02 | 18.02973 | -63.18770 | 1406 ft | 144 kts | 86° |
| 2026-05-05 18:03 | 18.03112 | -63.17760 | 1218 ft | 138 kts | 85° |
| 2026-05-05 18:03 | 18.03252 | -63.16782 | 1014 ft | 132 kts | 86° |
| 2026-05-05 18:03 | 18.03384 | -63.15846 | 810 ft | 128 kts | 85° |
| 2026-05-05 18:03 | 18.03534 | -63.14938 | 584 ft | 126 kts | 85° |
| 2026-05-05 18:04 | 18.03653 | -63.14013 | 368 ft | 125 kts | 85° |
| 2026-05-05 18:04 | 18.03780 | -63.13098 | 281 ft | 129 kts | 85° |
| 2026-05-05 18:04 | 18.03926 | -63.12141 | 138 ft | 136 kts | 85° |
| 2026-05-05 18:04 | 18.04052 | -63.11168 | 28 ft | 126 kts | 85° |
| 2026-05-05 18:05 | 18.04147 | -63.10512 | 23 ft | 58 kts | 81° |
| 2026-05-05 18:05 | 18.04171 | -63.10339 | 23 ft | 0 kts | 91° |
| 2026-05-05 18:05 | 18.04163 | -63.10311 | 23 ft | 11 kts | 97° |
| 2026-05-05 18:05 | 18.04192 | -63.10263 | 22 ft | 7 kts | 36° |
| 2026-05-05 18:06 | 18.04196 | -63.10236 | 22 ft | 3 kts | 147° |
| 2026-05-05 18:06 | 18.04184 | -63.10243 | 22 ft | 5 kts | 234° |
| 2026-05-05 18:06 | 18.04168 | -63.10370 | 23 ft | 28 kts | 261° |
| 2026-05-05 18:06 | 18.04134 | -63.10638 | 26 ft | 39 kts | 263° |
| 2026-05-05 18:07 | 18.04092 | -63.10897 | 23 ft | 30 kts | 263° |
| 2026-05-05 18:07 | 18.04131 | -63.10992 | 26 ft | 9 kts | 337° |
| 2026-05-05 18:07 | 18.04166 | -63.11049 | 26 ft | 11 kts | 270° |
| 2026-05-05 18:07 | 18.04153 | -63.11142 | 25 ft | 14 kts | 260° |
| 2026-05-05 18:08 | 18.04138 | -63.11254 | 23 ft | 15 kts | 262° |
| 2026-05-05 18:08 | 18.04173 | -63.11300 | 23 ft | 8 kts | 348° |
| 2026-05-05 18:08 | 18.04240 | -63.11312 | 25 ft | 11 kts | 349° |
| 2026-05-05 18:08 | 18.04289 | -63.11349 | 23 ft | 6 kts | 318° |
| 2026-05-05 18:09 | 18.04323 | -63.11361 | 23 ft | 2 kts | 351° |
| 2026-05-05 18:09 | 18.04328 | -63.11362 | 23 ft | 0 kts | 350° |